Los Gatos, California
Current Conditions -  °F | °C
As of 7:53 PM on Sunday 21 Dec 2014 (Local Time) from KSJC Reporting Station
Broken Clouds Broken Clouds  
Wind Chill: 59°   Ceiling: 1200
Heat Index: 59°   Visibility: 10mi
Dew Point: 57°   Wind: 8mph
Humidity: 93%   Direction: 290°WNW
Pressure: 30.29"   Gusts: NA
Location:  37.22°N, 121.97°W
Report Text: KSJC 220353Z 29007KT 10SM FEW008 BKN012 BKN021 15/14 A3029 RMK AO2 SLP255 T01500139
Loading
Personal Weather Stations






























Interactive Weather Map New forecast layout! Learn more

10-Day Weather Forecast

Advertisements
Track Severe Weather on mobile